Time;durP1;ratioP1;P1;durP2;ratioP2;P2;SDS_P1;SDS_P2;PMS_P1;PMS_P2;Temp;Humidity;BMP_temperature;BMP_pressure;BME280_temperature;BME280_humidity;BME280_pressure;Samples;Min_cycle;Max_cycle;Signal;HPM_P1;HPM_P2
2022/05/05 00:01:02;;;;;;;;;;;;;;;21.39;47.66;101894.72;7283261;19;152908;-58
2022/05/05 00:03:29;;;;;;;;;;;;;;;21.38;47.79;101887.41;7282078;19;152076;-59
2022/05/05 00:05:56;;;;;;;;;;;;;;;21.36;47.41;101887.69;7284525;19;152038;-60
2022/05/05 00:08:23;;;;;;;;;;;;;;;21.35;47.40;101883.19;7281214;19;154314;-60
2022/05/05 00:16:04;;;;;;;;;;;;;;;21.34;47.92;101873.09;7284744;19;151877;-59
2022/05/05 00:18:31;;;;;;;;;;;;;;;21.30;47.53;101875.63;7281474;19;152872;-60
2022/05/05 00:20:58;;;;;;;;;;;;;;;21.32;47.70;101886.59;7283158;19;153560;-58
2022/05/05 00:23:26;;;;;;;;;;;;;;;21.30;47.87;101888.88;7283470;19;152120;-59
2022/05/05 00:25:53;;;;;;;;;;;;;;;21.29;47.88;101885.22;7281371;19;153575;-58
2022/05/05 00:28:20;;;;;;;;;;;;;;;21.29;48.11;101885.22;7283194;19;152742;-58
2022/05/05 00:30:47;;;;;;;;;;;;;;;21.29;48.11;101885.22;7282753;19;151866;-59
2022/05/05 00:33:14;;;;;;;;;;;;;;;21.26;48.28;101882.97;7277671;19;151885;-59
2022/05/05 00:35:41;;;;;;;;;;;;;;;21.28;47.81;101885.50;7287895;19;154231;-59
2022/05/05 00:38:08;;;;;;;;;;;;;;;21.27;48.05;101881.84;7281711;19;153742;-60
2022/05/05 00:40:35;;;;;;;;;;;;;;;21.25;48.08;101886.06;7278740;19;154589;-59
2022/05/05 00:43:02;;;;;;;;;;;;;;;21.27;48.65;101883.81;7281608;19;151798;-60
2022/05/05 00:45:29;;;;;;;;;;;;;;;21.24;48.62;101879.63;7283008;19;152583;-59
2022/05/05 00:48:05;;;;;;;;;;;;;;;21.21;48.68;101888.59;7280305;19;154188;-59
2022/05/05 00:50:33;;;;;;;;;;;;;;;21.22;48.82;101876.25;7281269;19;152178;-58
2022/05/05 00:53:01;;;;;;;;;;;;;;;21.21;49.00;101891.41;7282239;19;153910;-58
2022/05/05 00:55:31;;;;;;;;;;;;;;;21.23;48.62;101883.56;7281115;19;154357;-59
2022/05/05 00:57:58;;;;;;;;;;;;;;;21.23;48.61;101894.78;7289068;19;151642;-58
2022/05/05 01:00:25;;;;;;;;;;;;;;;21.24;48.76;101890.00;7279583;19;153322;-59
2022/05/05 01:02:53;;;;;;;;;;;;;;;21.25;48.95;101886.06;7283061;19;152391;-59
2022/05/05 01:05:20;;;;;;;;;;;;;;;21.21;48.62;101888.59;7281263;19;152721;-59
2022/05/05 01:07:47;;;;;;;;;;;;;;;21.22;48.82;101883.81;7279242;19;153292;-59
2022/05/05 01:10:14;;;;;;;;;;;;;;;21.23;48.68;101883.56;7281553;19;153716;-59
2022/05/05 01:12:41;;;;;;;;;;;;;;;21.21;48.86;101880.16;7282118;19;155089;-59
2022/05/05 01:15:08;;;;;;;;;;;;;;;21.20;48.86;101881.31;7280852;19;153521;-59
2022/05/05 01:17:36;;;;;;;;;;;;;;;21.21;48.95;101883.00;7283040;19;151625;-60
2022/05/05 01:20:13;;;;;;;;;;;;;;;21.22;48.87;101883.81;7289290;19;153431;-60
2022/05/05 01:22:40;;;;;;;;;;;;;;;21.23;48.73;101885.50;7281239;19;152019;-59
2022/05/05 01:30:19;;;;;;;;;;;;;;;21.22;48.60;101890.28;7282308;19;151626;-59
2022/05/05 01:32:46;;;;;;;;;;;;;;;21.24;48.40;101892.81;7281814;19;152650;-59
2022/05/05 01:35:13;;;;;;;;;;;;;;;21.21;48.40;101885.78;7279132;19;153547;-60
2022/05/05 01:37:45;;;;;;;;;;;;;;;21.21;48.75;101884.97;7281563;19;153327;-59
2022/05/05 01:40:12;;;;;;;;;;;;;;;21.22;48.27;101893.09;7279888;19;153945;-59
2022/05/05 01:42:39;;;;;;;;;;;;;;;21.16;48.47;101893.44;7288170;19;154066;-58
2022/05/05 01:45:06;;;;;;;;;;;;;;;21.14;48.79;101887.25;7287984;19;153522;-59
2022/05/05 01:47:33;;;;;;;;;;;;;;;21.13;48.58;101894.84;7284530;19;154078;-60
2022/05/05 01:50:00;;;;;;;;;;;;;;;21.12;48.71;101897.94;7288085;19;152129;-58
2022/05/05 01:52:27;;;;;;;;;;;;;;;21.10;48.45;101897.38;7284683;19;154464;-59
2022/05/05 01:54:54;;;;;;;;;;;;;;;21.07;49.00;101896.00;7284828;19;153341;-59
2022/05/05 01:57:21;;;;;;;;;;;;;;;21.06;48.48;101890.66;7285919;19;151971;-59
2022/05/05 01:59:47;;;;;;;;;;;;;;;21.06;48.45;101894.31;7284656;19;152564;-60
2022/05/05 02:02:14;;;;;;;;;;;;;;;21.05;48.75;101897.38;7285883;19;154309;-58
2022/05/05 02:04:41;;;;;;;;;;;;;;;21.03;48.40;101897.66;7293242;19;153752;-59
2022/05/05 02:07:08;;;;;;;;;;;;;;;21.04;48.62;101895.69;7285842;19;153983;-59
2022/05/05 02:09:35;;;;;;;;;;;;;;;21.03;48.79;101894.84;7284845;19;153814;-58
2022/05/05 02:12:02;;;;;;;;;;;;;;;21.03;48.98;101900.47;7287765;19;152419;-59
2022/05/05 02:14:29;;;;;;;;;;;;;;;21.03;48.61;101902.47;7283648;19;153311;-60
2022/05/05 02:16:55;;;;;;;;;;;;;;;21.05;48.71;101903.84;7287937;19;151701;-59
2022/05/05 02:19:22;;;;;;;;;;;;;;;21.04;48.77;101899.34;7286258;19;152732;-58
2022/05/05 02:21:49;;;;;;;;;;;;;;;21.01;48.84;101911.19;7284882;19;153568;-59
2022/05/05 02:24:16;;;;;;;;;;;;;;;21.00;48.70;101906.69;7294976;19;151963;-59
2022/05/05 02:26:42;;;;;;;;;;;;;;;21.01;48.50;101914.00;7285527;19;154503;-59
2022/05/05 02:29:09;;;;;;;;;;;;;;;20.99;48.54;101906.97;7285009;19;151704;-60
2022/05/05 02:31:37;;;;;;;;;;;;;;;20.99;48.45;101910.63;7284344;19;153403;-60
2022/05/05 02:34:08;;;;;;;;;;;;;;;21.02;48.76;101912.03;7283056;19;153601;-60
2022/05/05 02:39:11;;;;;;;;;;;;;;;20.98;48.61;101908.13;7284593;19;153288;-59
2022/05/05 02:41:38;;;;;;;;;;;;;;;20.95;48.54;101908.66;7285223;19;154629;-59
2022/05/05 02:44:05;;;;;;;;;;;;;;;20.94;48.37;101913.44;7285568;19;151978;-60
2022/05/05 02:46:32;;;;;;;;;;;;;;;20.97;48.43;101917.66;7292750;19;153184;-58
2022/05/05 02:49:00;;;;;;;;;;;;;;;20.95;48.34;101920.75;7285166;19;151977;-59
2022/05/05 02:51:26;;;;;;;;;;;;;;;20.94;48.47;101921.06;7284140;19;153437;-58
2022/05/05 02:56:29;;;;;;;;;;;;;;;20.92;48.68;101920.50;7282917;19;152215;-59
2022/05/05 02:58:56;;;;;;;;;;;;;;;20.93;48.63;101925.00;7286315;19;153565;-59
2022/05/05 03:01:23;;;;;;;;;;;;;;;20.91;48.34;101919.66;7283407;19;154552;-60
2022/05/05 03:03:50;;;;;;;;;;;;;;;20.91;48.41;101913.19;7286248;19;151836;-59
2022/05/05 03:06:17;;;;;;;;;;;;;;;20.89;48.54;101916.31;7283606;19;153106;-59
2022/05/05 03:08:44;;;;;;;;;;;;;;;20.90;48.22;101919.94;7289186;19;154091;-59
2022/05/05 03:11:11;;;;;;;;;;;;;;;20.93;48.39;101922.19;7287324;19;154578;-60
2022/05/05 03:13:38;;;;;;;;;;;;;;;20.89;48.55;101929.50;7283967;19;152337;-59
2022/05/05 03:16:05;;;;;;;;;;;;;;;20.90;48.17;101925.53;7285260;19;151794;-59
2022/05/05 03:18:32;;;;;;;;;;;;;;;20.89;48.42;101923.88;7285732;19;153692;-60
2022/05/05 03:20:59;;;;;;;;;;;;;;;20.89;48.32;101926.69;7283191;19;154788;-60
2022/05/05 03:23:26;;;;;;;;;;;;;;;20.90;48.29;101920.78;7286087;19;151791;-60
2022/05/05 03:25:53;;;;;;;;;;;;;;;20.86;48.09;101926.13;7284580;19;153688;-60
2022/05/05 03:28:20;;;;;;;;;;;;;;;20.86;48.24;101923.31;7282806;19;153867;-59
2022/05/05 03:30:46;;;;;;;;;;;;;;;20.86;48.49;101928.94;7290584;19;152853;-58
2022/05/05 03:33:13;;;;;;;;;;;;;;;20.86;48.58;101923.31;7284688;19;153283;-59
2022/05/05 03:35:40;;;;;;;;;;;;;;;20.84;48.12;101928.41;7286617;19;151918;-60
2022/05/05 03:38:07;;;;;;;;;;;;;;;20.81;48.32;101928.94;7284619;19;152831;-59
2022/05/05 03:40:33;;;;;;;;;;;;;;;20.76;48.66;101928.97;7281156;19;154325;-59
2022/05/05 03:43:00;;;;;;;;;;;;;;;20.80;48.31;101930.06;7282615;19;151752;-59
2022/05/05 03:45:27;;;;;;;;;;;;;;;20.79;48.63;101922.81;7285969;19;152757;-59
2022/05/05 03:47:54;;;;;;;;;;;;;;;20.79;48.45;101936.00;7283700;19;153364;-59
2022/05/05 03:50:21;;;;;;;;;;;;;;;20.78;48.38;101931.50;7283422;19;151818;-60
2022/05/05 03:52:47;;;;;;;;;;;;;;;20.77;48.36;101933.47;7289893;19;152855;-59
2022/05/05 03:55:14;;;;;;;;;;;;;;;20.75;48.57;101941.34;7280460;19;152027;-60
2022/05/05 03:57:41;;;;;;;;;;;;;;;20.79;48.82;101942.47;7283023;19;152760;-59
2022/05/05 04:00:08;;;;;;;;;;;;;;;20.77;49.03;101941.88;7281751;19;155499;-59
2022/05/05 04:02:35;;;;;;;;;;;;;;;20.79;48.88;101933.19;7284561;19;151908;-59
2022/05/05 04:05:01;;;;;;;;;;;;;;;20.76;48.52;101940.19;7281457;19;153755;-59
2022/05/05 04:07:28;;;;;;;;;;;;;;;20.74;48.74;101942.47;7282970;19;152593;-59
2022/05/05 04:09:55;;;;;;;;;;;;;;;20.74;48.53;101953.72;7281748;19;151877;-59
2022/05/05 04:12:23;;;;;;;;;;;;;;;20.73;48.71;101949.22;7284636;19;153443;-59
2022/05/05 04:14:50;;;;;;;;;;;;;;;20.69;48.71;101950.06;7286595;19;153082;-59
2022/05/05 04:17:18;;;;;;;;;;;;;;;20.68;48.40;101945.56;7282434;19;153669;-60
2022/05/05 04:19:45;;;;;;;;;;;;;;;20.64;48.80;101950.06;7282224;19;155450;-59
2022/05/05 04:22:12;;;;;;;;;;;;;;;20.66;48.80;101959.06;7283914;19;151945;-59
2022/05/05 04:24:39;;;;;;;;;;;;;;;20.63;48.69;101959.63;7283059;19;153876;-59
2022/05/05 04:27:06;;;;;;;;;;;;;;;20.60;48.53;101961.03;7281403;19;154396;-59
2022/05/05 04:29:33;;;;;;;;;;;;;;;20.58;48.93;101966.09;7282238;19;152019;-59
2022/05/05 04:32:02;;;;;;;;;;;;;;;20.60;48.69;101968.63;7281047;19;155339;-59
2022/05/05 04:34:31;;;;;;;;;;;;;;;20.60;48.74;101968.63;7288441;19;153382;-59
2022/05/05 04:36:58;;;;;;;;;;;;;;;20.61;48.46;101976.78;7281045;19;153379;-58
2022/05/05 04:39:25;;;;;;;;;;;;;;;20.59;48.53;101976.19;7280613;19;154368;-58
2022/05/05 04:41:52;;;;;;;;;;;;;;;20.58;48.24;101982.13;7282899;19;151910;-58
2022/05/05 04:44:20;;;;;;;;;;;;;;;20.57;48.43;101981.28;7281566;19;154128;-59
2022/05/05 04:46:47;;;;;;;;;;;;;;;20.55;48.28;101983.50;7280999;19;153782;-58
2022/05/05 04:49:14;;;;;;;;;;;;;;;20.53;48.78;101985.78;7281799;19;151872;-59
2022/05/05 04:51:41;;;;;;;;;;;;;;;20.51;48.37;101985.22;7282246;19;152649;-59
2022/05/05 04:54:08;;;;;;;;;;;;;;;20.53;48.52;101982.97;7279442;19;154139;-58
2022/05/05 04:56:34;;;;;;;;;;;;;;;20.55;48.28;101986.31;7290968;19;151876;-59
2022/05/05 04:59:03;;;;;;;;;;;;;;;20.51;48.22;101982.41;7279527;19;152622;-59
2022/05/05 05:01:29;;;;;;;;;;;;;;;20.53;48.63;101985.78;7281150;19;152197;-60
2022/05/05 05:03:56;;;;;;;;;;;;;;;20.52;48.52;101984.09;7283066;19;152483;-60
2022/05/05 05:06:33;;;;;;;;;;;;;;;20.49;48.48;101981.00;7279985;19;155870;-60
2022/05/05 05:09:00;;;;;;;;;;;;;;;20.49;48.83;101993.06;7282233;19;151783;-59
2022/05/05 05:11:27;;;;;;;;;;;;;;;20.47;48.68;101988.88;7281289;19;153354;-59
2022/05/05 05:13:55;;;;;;;;;;;;;;;20.47;48.99;101988.88;7278298;19;154857;-59
2022/05/05 05:16:22;;;;;;;;;;;;;;;20.45;48.74;101988.28;7281364;19;151867;-58
2022/05/05 05:19:07;;;;;;;;;;;;;;;20.45;49.04;101997.56;7287719;19;152093;-59
2022/05/05 05:21:34;;;;;;;;;;;;;;;20.48;48.40;102005.44;7281720;19;151923;-59
2022/05/05 05:24:02;;;;;;;;;;;;;;;20.42;48.83;102001.78;7282578;19;153723;-59
2022/05/05 05:26:30;;;;;;;;;;;;;;;20.44;48.87;102003.47;7278612;19;153435;-59
2022/05/05 05:28:58;;;;;;;;;;;;;;;20.47;48.58;102014.13;7279073;19;153106;-58
2022/05/05 05:31:25;;;;;;;;;;;;;;;20.46;48.77;102009.63;7282261;19;153347;-58
2022/05/05 05:33:53;;;;;;;;;;;;;;;20.44;48.73;102012.75;7278658;19;154097;-59
2022/05/05 05:36:30;;;;;;;;;;;;;;;20.37;49.22;102013.00;7282282;19;151971;-59
2022/05/05 05:38:57;;;;;;;;;;;;;;;20.37;49.05;102013.00;7282357;19;152352;-59
2022/05/05 05:41:27;;;;;;;;;;;;;;;20.38;48.91;102016.66;7285798;19;152546;-59
2022/05/05 05:43:55;;;;;;;;;;;;;;;20.34;49.15;102026.78;7280962;19;153127;-59
2022/05/05 05:46:21;;;;;;;;;;;;;;;20.33;49.13;102019.47;7280895;19;153256;-59
2022/05/05 05:48:48;;;;;;;;;;;;;;;20.38;49.25;102034.34;7281762;19;151884;-60
2022/05/05 05:51:15;;;;;;;;;;;;;;;20.34;48.92;102036.03;7280826;19;152559;-60
2022/05/05 05:53:46;;;;;;;;;;;;;;;20.33;48.90;102030.69;7280423;19;151982;-59
2022/05/05 05:56:13;;;;;;;;;;;;;;;20.31;49.34;102027.31;7275941;19;152000;-60
2022/05/05 05:58:40;;;;;;;;;;;;;;;20.35;49.01;102029.28;7281176;19;152624;-59
2022/05/05 06:01:07;;;;;;;;;;;;;;;20.39;49.47;102023.97;7278398;19;154244;-59
2022/05/05 06:06:21;;;;;;;;;;;;;;;20.47;49.52;102043.06;7280369;19;153866;-59
2022/05/05 06:08:49;;;;;;;;;;;;;;;20.53;50.08;102035.47;7278519;19;151917;-59
2022/05/05 06:11:18;;;;;;;;;;;;;;;20.59;49.97;102040.78;7279204;19;153313;-60
2022/05/05 06:13:45;;;;;;;;;;;;;;;20.66;50.22;102041.34;7276374;19;153384;-60
2022/05/05 06:16:12;;;;;;;;;;;;;;;20.74;50.24;102039.94;7278207;19;151801;-59
2022/05/05 06:18:39;;;;;;;;;;;;;;;20.83;50.12;102041.03;7280256;19;153583;-60
2022/05/05 06:21:06;;;;;;;;;;;;;;;20.98;49.75;102057.03;7277810;19;153984;-59
2022/05/05 06:23:33;;;;;;;;;;;;;;;21.04;48.98;102056.72;7287275;19;152182;-59
2022/05/05 06:26:01;;;;;;;;;;;;;;;21.11;48.54;102048.84;7278698;19;154168;-59
2022/05/05 06:28:28;;;;;;;;;;;;;;;21.19;48.31;102053.06;7279902;19;151891;-61
2022/05/05 06:30:55;;;;;;;;;;;;;;;21.26;48.01;102050.75;7285981;19;152859;-60
2022/05/05 06:33:22;;;;;;;;;;;;;;;21.33;47.90;102056.09;7283887;19;154752;-58
2022/05/05 06:35:55;;;;;;;;;;;;;;;21.41;47.24;102058.31;7283382;19;152416;-62
2022/05/05 06:38:22;;;;;;;;;;;;;;;21.40;46.54;102060.28;7286975;19;152533;-59
2022/05/05 06:40:49;;;;;;;;;;;;;;;21.14;42.98;102062.34;7283489;19;153386;-64
2022/05/05 06:43:17;;;;;;;;;;;;;;;21.02;42.64;102060.94;7284247;19;151631;-59
2022/05/05 06:45:45;;;;;;;;;;;;;;;20.90;41.70;102066.84;7293035;19;151853;-59
2022/05/05 06:48:13;;;;;;;;;;;;;;;20.85;42.40;102058.44;7285889;19;151811;-59
2022/05/05 06:50:40;;;;;;;;;;;;;;;21.10;42.78;102063.16;7284456;19;153305;-61
2022/05/05 06:53:07;;;;;;;;;;;;;;;21.22;42.89;102064.56;7282552;19;154148;-60
2022/05/05 06:55:34;;;;;;;;;;;;;;;21.28;43.07;102071.00;7283227;19;151730;-60
2022/05/05 06:58:05;;;;;;;;;;;;;;;21.34;43.33;102069.88;7286842;19;152901;-59
2022/05/05 07:03:11;;;;;;;;;;;;;;;21.45;43.18;102081.91;7285944;19;151480;-59
2022/05/05 07:05:38;;;;;;;;;;;;;;;21.47;43.29;102074.88;7284617;19;152766;-59
2022/05/05 07:08:05;;;;;;;;;;;;;;;21.51;44.15;102087.25;7291049;19;153524;-59
2022/05/05 07:13:09;;;;;;;;;;;;;;;21.56;43.93;102086.38;7281964;19;153955;-59
2022/05/05 07:15:37;;;;;;;;;;;;;;;21.57;43.62;102086.09;7280381;19;151877;-60
2022/05/05 07:18:04;;;;;;;;;;;;;;;21.59;43.87;102085.78;7285388;19;153167;-60
2022/05/05 07:20:31;;;;;;;;;;;;;;;21.58;44.12;102093.38;7282854;19;153205;-59
2022/05/05 07:22:58;;;;;;;;;;;;;;;21.68;43.59;102093.34;7282461;19;152074;-58
2022/05/05 07:25:26;;;;;;;;;;;;;;;21.71;43.60;102098.38;7284311;19;152770;-59
2022/05/05 07:27:54;;;;;;;;;;;;;;;21.77;43.43;102096.41;7283219;19;152403;-65
2022/05/05 07:30:23;;;;;;;;;;;;;;;21.77;43.51;102102.03;7289734;19;151753;-59
2022/05/05 07:32:50;;;;;;;;;;;;;;;21.73;43.84;102098.09;7278958;19;154489;-59
2022/05/05 07:35:18;;;;;;;;;;;;;;;21.71;43.70;102106.81;7283125;19;151959;-59
2022/05/05 07:37:45;;;;;;;;;;;;;;;21.71;43.42;102100.38;7283514;19;153870;-60
2022/05/05 07:40:12;;;;;;;;;;;;;;;21.68;43.46;102098.97;7280462;19;152879;-59
2022/05/05 07:42:41;;;;;;;;;;;;;;;21.67;43.43;102104.88;7282557;19;151799;-59
2022/05/05 07:45:08;;;;;;;;;;;;;;;21.68;43.76;102109.38;7282547;19;151942;-59
2022/05/05 07:47:35;;;;;;;;;;;;;;;21.67;43.64;102113.31;7282155;19;152424;-58
2022/05/05 07:50:03;;;;;;;;;;;;;;;21.67;43.84;102119.78;7283345;19;151834;-59
2022/05/05 07:52:30;;;;;;;;;;;;;;;21.65;43.39;102113.63;7289910;19;152921;-59
2022/05/05 07:54:57;;;;;;;;;;;;;;;21.65;43.78;102121.22;7281635;19;151715;-59
2022/05/05 07:57:24;;;;;;;;;;;;;;;21.62;43.78;102125.44;7282815;19;152470;-59
2022/05/05 07:59:51;;;;;;;;;;;;;;;21.61;43.56;102120.09;7283518;19;154224;-59
2022/05/05 08:02:19;;;;;;;;;;;;;;;21.59;43.37;102120.38;7282281;19;151870;-59
2022/05/05 08:04:46;;;;;;;;;;;;;;;21.57;43.35;102119.00;7282999;19;152754;-59
2022/05/05 08:07:13;;;;;;;;;;;;;;;21.54;43.65;102116.75;7282911;19;153265;-60
2022/05/05 08:09:40;;;;;;;;;;;;;;;21.52;43.35;102117.06;7282211;19;152238;-59
2022/05/05 08:12:28;;;;;;;;;;;;;;;21.54;43.46;102125.19;7281680;19;154911;-59
2022/05/05 08:14:55;;;;;;;;;;;;;;;21.51;43.50;102125.75;7286724;19;154529;-59
2022/05/05 08:17:23;;;;;;;;;;;;;;;21.49;43.39;102128.84;7284678;19;155435;-59
2022/05/05 08:19:50;;;;;;;;;;;;;;;21.47;43.37;102128.31;7281165;19;154096;-58
2022/05/05 08:22:18;;;;;;;;;;;;;;;21.48;43.36;102131.97;7275341;19;151894;-59
2022/05/05 08:29:57;;;;;;;;;;;;;;;21.44;43.45;102137.28;7283872;19;151819;-58
2022/05/05 08:32:24;;;;;;;;;;;;;;;21.43;43.65;102135.63;7283842;19;152537;-59
2022/05/05 08:34:51;;;;;;;;;;;;;;;21.42;43.65;102138.72;7289304;19;152409;-59
2022/05/05 08:37:18;;;;;;;;;;;;;;;21.41;43.47;102137.88;7277908;19;152541;-59
2022/05/05 08:39:45;;;;;;;;;;;;;;;21.41;43.73;102137.88;7283191;19;153188;-59
2022/05/05 08:42:12;;;;;;;;;;;;;;;21.40;43.86;102129.72;7282019;19;151781;-59
2022/05/05 08:44:39;;;;;;;;;;;;;;;21.39;43.68;102142.13;7282249;19;153655;-59
2022/05/05 08:47:08;;;;;;;;;;;;;;;21.38;43.63;102135.66;7282758;19;153242;-59
2022/05/05 08:49:36;;;;;;;;;;;;;;;21.36;43.79;102140.69;7284531;19;151938;-59
2022/05/05 08:52:03;;;;;;;;;;;;;;;21.36;43.54;102137.03;7281817;19;152882;-59
2022/05/05 08:54:32;;;;;;;;;;;;;;;21.35;43.57;102139.00;7281023;19;154186;-59
2022/05/05 08:56:59;;;;;;;;;;;;;;;21.35;43.47;102141.81;7286125;19;152299;-60
2022/05/05 08:59:25;;;;;;;;;;;;;;;21.34;43.98;102139.31;7282053;19;153516;-59
2022/05/05 09:01:52;;;;;;;;;;;;;;;21.32;43.94;102150.84;7284066;19;151928;-59
2022/05/05 09:04:23;;;;;;;;;;;;;;;21.33;43.82;102146.06;7280140;19;152591;-59
2022/05/05 09:06:51;;;;;;;;;;;;;;;21.32;43.82;102147.19;7282817;19;152592;-61
2022/05/05 09:09:23;;;;;;;;;;;;;;;21.28;43.81;102150.56;7281380;19;152684;-59
2022/05/05 09:12:10;;;;;;;;;;;;;;;21.28;43.81;102153.38;7281430;19;154311;-59
2022/05/05 09:14:38;;;;;;;;;;;;;;;21.27;43.58;102153.66;7279037;19;153487;-59
2022/05/05 09:17:06;;;;;;;;;;;;;;;21.30;43.70;102153.09;7280985;19;151801;-58
2022/05/05 09:19:35;;;;;;;;;;;;;;;21.28;43.77;102149.72;7290612;19;152844;-59
2022/05/05 09:22:03;;;;;;;;;;;;;;;21.27;44.04;102153.66;7279164;19;152740;-59
2022/05/05 09:27:16;;;;;;;;;;;;;;;21.26;43.59;102150.00;7278079;19;153647;-59
2022/05/05 09:29:57;;;;;;;;;;;;;;;21.21;43.54;102143.56;7279614;19;151893;-59
2022/05/05 09:32:26;;;;;;;;;;;;;;;21.18;43.56;102150.59;7279661;19;152519;-59
2022/05/05 09:34:55;;;;;;;;;;;;;;;21.17;43.78;102154.50;7278519;19;154209;-59
2022/05/05 09:37:22;;;;;;;;;;;;;;;21.20;43.76;102159.59;7277107;19;151690;-59
2022/05/05 09:39:53;;;;;;;;;;;;;;;21.19;43.90;102152.28;7281819;19;152565;-59
2022/05/05 09:42:30;;;;;;;;;;;;;;;21.24;43.89;102152.28;7286482;19;153523;-59
2022/05/05 09:44:57;;;;;;;;;;;;;;;21.25;43.65;102155.94;7281713;19;154977;-59
2022/05/05 09:47:26;;;;;;;;;;;;;;;21.23;43.43;102158.16;7243729;19;158260;-58
2022/05/05 09:49:57;;;;;;;;;;;;;;;21.20;43.66;102151.16;7278630;19;152084;-59
2022/05/05 09:57:58;;;;;;;;;;;;;;;21.32;43.32;102156.47;7279840;19;151966;-59
2022/05/05 10:05:32;;;;;;;;;;;;;;;21.29;43.66;102157.03;7293244;19;151903;-59
2022/05/05 10:08:08;;;;;;;;;;;;;;;21.36;43.45;102153.91;7283569;19;154090;-59
2022/05/05 10:10:37;;;;;;;;;;;;;;;21.42;43.46;102158.41;7286876;19;152458;-60
2022/05/05 10:13:05;;;;;;;;;;;;;;;21.47;43.73;102164.88;7286340;19;152469;-60
2022/05/05 10:15:32;;;;;;;;;;;;;;;21.49;43.49;102162.59;7282018;19;154020;-60
2022/05/05 10:18:20;;;;;;;;;;;;;;;21.52;43.44;102164.00;7286760;19;152073;-59
2022/05/05 10:20:47;;;;;;;;;;;;;;;21.55;43.19;102164.28;7286102;19;152790;-59
2022/05/05 10:23:17;;;;;;;;;;;;;;;21.59;43.41;102167.34;7285012;19;154437;-59
2022/05/05 10:25:50;;;;;;;;;;;;;;;21.54;43.33;102167.38;7285157;19;151985;-59
2022/05/05 10:28:35;;;;;;;;;;;;;;;21.47;43.23;102169.66;7290070;19;151987;-60
2022/05/05 10:31:02;;;;;;;;;;;;;;;21.43;43.62;102169.38;7268740;19;152295;-58
2022/05/05 10:33:48;;;;;;;;;;;;;;;21.50;43.12;102163.44;7276783;19;153036;-59
2022/05/05 10:36:22;;;;;;;;;;;;;;;21.48;43.29;102169.38;7282782;19;153465;-59
2022/05/05 10:38:50;;;;;;;;;;;;;;;21.49;43.13;102168.22;7284644;19;152309;-59
2022/05/05 10:41:37;;;;;;;;;;;;;;;21.53;43.46;102177.75;7286214;19;153271;-59
2022/05/05 10:44:15;;;;;;;;;;;;;;;21.59;42.96;102171.00;7283992;19;153266;-59
2022/05/05 10:46:51;;;;;;;;;;;;;;;21.59;43.01;102171.00;7285427;19;154447;-59
2022/05/05 10:49:33;;;;;;;;;;;;;;;21.64;42.96;102168.19;7287648;19;153413;-60
2022/05/05 10:52:12;;;;;;;;;;;;;;;21.66;43.27;102170.72;7283911;19;151761;-64
2022/05/05 10:54:40;;;;;;;;;;;;;;;21.68;42.81;102171.25;7273689;19;152630;-59
2022/05/05 10:57:25;;;;;;;;;;;;;;;21.69;43.14;102170.97;7283114;19;153999;-59
2022/05/05 11:00:05;;;;;;;;;;;;;;;21.72;43.15;102178.00;7285887;19;151796;-59
2022/05/05 11:02:33;;;;;;;;;;;;;;;21.72;42.59;102173.22;7285735;19;152758;-59
2022/05/05 11:05:20;;;;;;;;;;;;;;;21.72;42.63;102178.00;7282945;19;153803;-59
2022/05/05 11:07:49;;;;;;;;;;;;;;;21.74;42.80;102184.19;7285897;19;151712;-59
2022/05/05 11:10:42;;;;;;;;;;;;;;;21.72;43.02;102176.03;7283891;19;152866;-59
2022/05/05 11:13:29;;;;;;;;;;;;;;;21.77;42.87;102185.56;7292882;19;153529;-59
2022/05/05 11:21:36;;;;;;;;;;;;;;;21.74;42.71;102178.56;7285668;19;151960;-60
2022/05/05 11:24:04;;;;;;;;;;;;;;;21.69;43.25;102182.22;7284489;19;152630;-60
2022/05/05 11:26:32;;;;;;;;;;;;;;;21.69;42.89;102189.81;7283740;19;154306;-59
2022/05/05 11:29:00;;;;;;;;;;;;;;;21.65;42.69;102178.31;7283975;19;151946;-59
2022/05/05 11:31:31;;;;;;;;;;;;;;;21.68;42.95;102179.69;7283165;19;155576;-59
2022/05/05 11:34:00;;;;;;;;;;;;;;;21.73;42.92;102185.31;7280850;19;153520;-60
2022/05/05 11:36:34;;;;;;;;;;;;;;;21.68;42.97;102169.28;7291580;19;152300;-60
2022/05/05 11:39:03;;;;;;;;;;;;;;;21.64;42.70;102167.34;7284545;19;153419;-59
2022/05/05 11:41:30;;;;;;;;;;;;;;;21.68;42.58;102172.09;7283060;19;151927;-61
2022/05/05 11:44:17;;;;;;;;;;;;;;;21.70;42.80;102167.06;7284729;19;153252;-59
2022/05/05 11:46:44;;;;;;;;;;;;;;;21.72;42.91;102170.41;7284214;19;154326;-60
2022/05/05 11:49:12;;;;;;;;;;;;;;;21.74;42.69;102170.97;7281215;19;152278;-60
2022/05/05 11:51:39;;;;;;;;;;;;;;;21.77;42.82;102161.09;7282342;19;153143;-59
2022/05/05 11:54:07;;;;;;;;;;;;;;;21.74;42.79;102159.72;7283385;19;153573;-60
2022/05/05 11:56:35;;;;;;;;;;;;;;;21.78;42.60;102168.41;7282491;19;152204;-59
2022/05/05 12:02:05;;;;;;;;;;;;;;;21.75;42.49;102163.38;7282212;19;151941;-59
2022/05/05 12:04:33;;;;;;;;;;;;;;;21.73;42.45;102160.84;7284920;19;152701;-59
2022/05/05 12:07:00;;;;;;;;;;;;;;;21.78;42.69;102162.78;7279691;19;154903;-59
2022/05/05 12:09:27;;;;;;;;;;;;;;;21.78;42.88;102156.31;7284546;19;152318;-58
2022/05/05 12:12:08;;;;;;;;;;;;;;;21.78;41.46;102165.59;7283910;19;153226;-59
2022/05/05 12:14:42;;;;;;;;;;;;;;;21.79;40.83;102170.09;7275620;19;153463;-59
2022/05/05 12:17:13;;;;;;;;;;;;;;;21.79;40.21;102155.19;7276392;19;152709;-59
2022/05/05 12:19:46;;;;;;;;;;;;;;;21.74;39.98;102158.88;7282146;19;152661;-59
2022/05/05 12:22:29;;;;;;;;;;;;;;;21.71;40.35;102156.66;7284266;19;154325;-59
2022/05/05 12:25:23;;;;;;;;;;;;;;;21.69;40.71;102156.91;7279578;19;154465;-58
2022/05/05 12:27:53;;;;;;;;;;;;;;;21.70;40.47;102149.31;7278518;19;153895;-59
2022/05/05 12:30:29;;;;;;;;;;;;;;;21.67;40.65;102156.34;7270217;19;152120;-59
2022/05/05 12:32:56;;;;;;;;;;;;;;;21.60;40.72;102150.19;7263108;19;154277;-59
2022/05/05 12:35:31;;;;;;;;;;;;;;;21.61;40.79;102159.47;7263657;19;153965;-60
2022/05/05 12:38:01;;;;;;;;;;;;;;;21.59;40.72;102162.56;7229495;19;152358;-58
2022/05/05 12:40:41;;;;;;;;;;;;;;;21.60;39.84;102153.00;7272084;19;154289;-59
2022/05/05 12:43:09;;;;;;;;;;;;;;;21.57;39.92;102153.59;7279613;19;154342;-59
2022/05/05 12:45:37;;;;;;;;;;;;;;;21.58;40.48;102152.44;7278302;19;152131;-59
2022/05/05 12:48:10;;;;;;;;;;;;;;;21.54;40.58;102151.34;7260289;19;153297;-59
2022/05/05 12:50:40;;;;;;;;;;;;;;;21.54;40.77;102154.16;7270083;19;153617;-59
2022/05/05 13:01:44;;;;;;;;;;;;;;;21.46;41.15;102160.38;7280010;19;153028;-59
2022/05/05 13:04:15;;;;;;;;;;;;;;;21.43;40.28;102146.88;7280080;19;153424;-59
2022/05/05 13:06:42;;;;;;;;;;;;;;;21.40;40.81;102147.44;7285876;19;151965;-59
2022/05/05 13:09:10;;;;;;;;;;;;;;;21.38;41.21;102146.06;7280834;19;154449;-58
2022/05/05 13:11:38;;;;;;;;;;;;;;;21.38;40.91;102152.53;7249168;19;152424;-59
2022/05/05 13:14:05;;;;;;;;;;;;;;;21.34;41.02;102156.19;7273249;19;154248;-58
2022/05/05 13:16:32;;;;;;;;;;;;;;;21.34;41.26;102150.56;7279819;19;154003;-59
2022/05/05 13:19:02;;;;;;;;;;;;;;;21.29;41.61;102157.03;7277028;19;152055;-59
2022/05/05 13:21:30;;;;;;;;;;;;;;;21.26;41.38;102164.06;7281255;19;152621;-58
2022/05/05 13:23:57;;;;;;;;;;;;;;;21.25;41.23;102155.94;7280322;19;153616;-59
2022/05/05 13:26:23;;;;;;;;;;;;;;;21.27;41.19;102154.50;7282203;19;151827;-59
2022/05/05 13:28:50;;;;;;;;;;;;;;;21.25;41.16;102150.31;7284969;19;153757;-59
2022/05/05 13:31:17;;;;;;;;;;;;;;;21.27;41.71;102150.84;7278710;19;151896;-59
2022/05/05 13:33:44;;;;;;;;;;;;;;;21.24;41.89;102157.88;7268503;19;154727;-58
2022/05/05 13:36:11;;;;;;;;;;;;;;;21.21;41.53;102164.06;7273935;19;153398;-64